Time;durP1;ratioP1;P1;durP2;ratioP2;P2;SDS_P1;SDS_P2;PMS_P1;PMS_P2;Temp;Humidity;BMP_temperature;BMP_pressure;BME280_temperature;BME280_humidity;BME280_pressure;Samples;Min_cycle;Max_cycle;Signal;HPM_P1;HPM_P2
2022/07/18 00:00:06;;;;;;;2.33;0.40;;;18.90;47.20;;;;;;4945508;29;20107;-96
2022/07/18 00:02:50;;;;;;;6.07;0.57;;;18.80;47.30;;;;;;4959688;28;20022;-85
2022/07/18 00:05:19;;;;;;;1.42;0.50;;;18.80;47.40;;;;;;4963275;28;20075;-96
2022/07/18 00:07:45;;;;;;;12.75;0.60;;;18.80;47.50;;;;;;4960170;28;20031;-96
2022/07/18 00:10:11;;;;;;;1.40;0.50;;;18.70;47.80;;;;;;4938615;29;20065;-96
2022/07/18 00:12:36;;;;;;;3.45;0.52;;;18.70;47.90;;;;;;4936623;29;20504;-96
2022/07/18 00:15:07;;;;;;;2.58;0.43;;;18.70;48.10;;;;;;4941534;29;20035;-96
2022/07/18 00:18:04;;;;;;;2.78;0.73;;;18.60;48.40;;;;;;4951777;29;20027;-96
2022/07/18 00:20:30;;;;;;;2.00;0.73;;;18.60;48.60;;;;;;4934248;28;20100;-91
2022/07/18 00:22:56;;;;;;;2.17;0.80;;;18.50;48.80;;;;;;4943277;28;20027;-94
2022/07/18 00:25:22;;;;;;;9.25;0.80;;;18.50;48.90;;;;;;4928422;29;20395;-95
2022/07/18 00:27:48;;;;;;;2.70;0.50;;;18.50;49.20;;;;;;4916880;29;20481;-94
2022/07/18 00:30:14;;;;;;;2.85;0.50;;;18.40;49.20;;;;;;4935911;28;20044;-96
2022/07/18 00:32:40;;;;;;;5.85;0.70;;;18.40;49.40;;;;;;4939636;28;20117;-96
2022/07/18 00:35:08;;;;;;;2.92;0.40;;;18.40;49.60;;;;;;4941245;29;20012;-96
2022/07/18 00:37:47;;;;;;;1.00;0.40;;;18.40;49.70;;;;;;4940522;28;20008;-96
2022/07/18 00:40:12;;;;;;;1.15;0.55;;;18.40;49.90;;;;;;4941283;28;20056;-96
2022/07/18 00:42:38;;;;;;;2.40;0.77;;;18.30;49.90;;;;;;4942629;28;20036;-93
2022/07/18 00:45:05;;;;;;;2.90;0.50;;;18.30;50.10;;;;;;4942387;28;20032;-95
2022/07/18 00:47:31;;;;;;;1.80;0.70;;;18.30;50.20;;;;;;4942325;28;20080;-95
2022/07/18 00:52:30;;;;;;;2.40;0.80;;;18.20;50.50;;;;;;4942000;29;20260;-93
2022/07/18 00:54:55;;;;;;;2.38;0.50;;;18.20;50.60;;;;;;4953869;29;20038;-94
2022/07/18 00:57:21;;;;;;;4.10;0.68;;;18.20;50.70;;;;;;4958089;28;20023;-95
2022/07/18 01:02:34;;;;;;;4.15;0.40;;;18.20;51.10;;;;;;4958357;29;20030;-96
2022/07/18 01:04:59;;;;;;;5.28;0.82;;;18.20;51.20;;;;;;4973988;28;20027;-95
2022/07/18 01:07:25;;;;;;;3.15;0.65;;;18.20;51.30;;;;;;4975367;28;20034;-95
2022/07/18 01:09:51;;;;;;;1.73;0.60;;;18.20;51.50;;;;;;4968967;28;20035;-96
2022/07/18 01:12:17;;;;;;;1.55;0.40;;;18.20;51.50;;;;;;4941243;28;20488;-96
2022/07/18 01:14:42;;;;;;;1.80;0.70;;;18.20;51.60;;;;;;4941851;29;20104;-95
2022/07/18 01:17:13;;;;;;;2.35;0.50;;;18.20;51.60;;;;;;4938650;29;20031;-95
2022/07/18 01:19:39;;;;;;;2.22;0.60;;;18.20;51.70;;;;;;4938729;29;20484;-94
2022/07/18 01:22:08;;;;;;;1.17;0.40;;;18.20;51.90;;;;;;4956055;28;20109;-96
2022/07/18 01:24:34;;;;;;;4.50;0.82;;;18.20;52.00;;;;;;4954935;28;20050;-96
2022/07/18 01:27:00;;;;;;;1.98;0.93;;;18.20;52.00;;;;;;4961075;28;20130;-95
2022/07/18 01:29:25;;;;;;;0.95;0.40;;;18.20;52.70;;;;;;4957118;28;20130;-95
2022/07/18 01:31:51;;;;;;;5.15;0.73;;;18.20;52.20;;;;;;4957707;28;20023;-95
2022/07/18 01:34:26;;;;;;;2.40;0.60;;;18.20;52.30;;;;;;4958112;28;20031;-96
2022/07/18 01:37:32;;;;;;;2.42;0.60;;;18.20;52.40;;;;;;4969203;28;20024;-95
2022/07/18 01:39:58;;;;;;;0.77;0.30;;;18.10;52.50;;;;;;4955471;28;20036;-95
2022/07/18 01:42:24;;;;;;;1.35;0.57;;;18.10;52.60;;;;;;4943354;29;20118;-90
2022/07/18 01:44:52;;;;;;;6.70;0.75;;;18.10;52.80;;;;;;4949431;28;20030;-90
2022/07/18 01:47:18;;;;;;;4.55;0.70;;;18.10;52.90;;;;;;4961599;28;20054;-86
2022/07/18 01:58:22;;;;;;;2.47;0.60;;;18.00;53.20;;;;;;5896839;23;20391;-96
2022/07/18 02:00:48;;;;;;;2.20;0.45;;;18.00;53.30;;;;;;4936276;29;20036;-96
2022/07/18 02:03:13;;;;;;;2.70;0.60;;;18.00;53.30;;;;;;4938614;29;20052;-96
2022/07/18 02:05:40;;;;;;;2.33;0.50;;;18.00;53.40;;;;;;4941323;28;20027;-96
2022/07/18 02:08:05;;;;;;;2.13;0.43;;;17.90;53.50;;;;;;4939624;28;20115;-96
2022/07/18 02:10:31;;;;;;;1.00;0.32;;;17.90;53.70;;;;;;4953853;29;20032;-96
2022/07/18 02:12:57;;;;;;;1.20;0.50;;;17.90;53.90;;;;;;4938064;28;20016;-96
2022/07/18 02:15:23;;;;;;;;;;;17.80;53.90;;;;;;4938777;28;20028;-95
2022/07/18 02:17:51;;;;;;;1.40;0.40;;;17.90;53.90;;;;;;4939216;28;19915;-96
2022/07/18 02:20:46;;;;;;;2.25;0.60;;;17.90;54.00;;;;;;4957977;28;20028;-96
2022/07/18 02:23:12;;;;;;;2.95;0.50;;;17.90;54.20;;;;;;4940193;28;20047;-95
2022/07/18 02:29:48;;;;;;;1.45;0.40;;;17.80;54.30;;;;;;4958382;28;20023;-96
2022/07/18 02:33:11;;;;;;;1.10;0.50;;;17.80;54.40;;;;;;4899713;29;20112;-96
2022/07/18 02:35:42;;;;;;;0.90;0.43;;;17.70;54.60;;;;;;4874042;29;20531;-96
2022/07/18 02:38:08;;;;;;;2.85;0.40;;;17.70;54.90;;;;;;4902023;29;20040;-96
2022/07/18 02:40:35;;;;;;;2.30;0.70;;;17.60;54.90;;;;;;4943460;29;20485;-96
2022/07/18 02:43:01;;;;;;;5.50;0.77;;;17.60;55.00;;;;;;4942118;29;20055;-95
2022/07/18 02:45:27;;;;;;;2.08;0.50;;;17.60;55.10;;;;;;4941432;29;20040;-96
2022/07/18 02:47:53;;;;;;;4.03;0.60;;;17.60;55.30;;;;;;4960574;29;20146;-94
2022/07/18 02:50:19;;;;;;;;;;;17.60;55.40;;;;;;4959029;28;20069;-91
2022/07/18 02:52:45;;;;;;;1.42;0.50;;;17.60;55.50;;;;;;4966602;28;19930;-91
2022/07/18 02:55:12;;;;;;;1.98;0.60;;;17.60;55.60;;;;;;4959605;28;20019;-91
2022/07/18 02:57:39;;;;;;;3.55;0.60;;;17.60;55.70;;;;;;4956094;28;20039;-95
2022/07/18 03:00:20;;;;;;;4.82;0.57;;;17.50;56.00;;;;;;4979683;28;20042;-96
2022/07/18 03:02:46;;;;;;;2.67;0.60;;;17.50;56.00;;;;;;4978605;28;20058;-95
2022/07/18 03:05:16;;;;;;;3.13;0.60;;;17.50;56.20;;;;;;4981318;28;20049;-95
2022/07/18 03:07:46;;;;;;;2.75;0.63;;;17.50;56.40;;;;;;4982884;28;20065;-94
2022/07/18 03:10:11;;;;;;;3.25;0.50;;;17.50;56.40;;;;;;4974709;28;20062;-92
2022/07/18 03:12:39;;;;;;;3.00;0.50;;;17.50;56.60;;;;;;4975555;28;20023;-94
2022/07/18 03:15:15;;;;;;;3.13;0.57;;;17.40;56.70;;;;;;4978951;28;20089;-95
2022/07/18 03:17:41;;;;;;;1.00;0.40;;;17.40;56.90;;;;;;4987293;28;20010;-95
2022/07/18 03:20:10;;;;;;;6.93;0.70;;;17.40;56.90;;;;;;4983581;28;20053;-96
2022/07/18 03:22:36;;;;;;;5.07;0.47;;;17.50;57.00;;;;;;4983895;28;20087;-95
2022/07/18 03:25:25;;;;;;;2.17;0.73;;;17.50;57.10;;;;;;4978972;28;20526;-95
2022/07/18 03:27:58;;;;;;;9.82;0.68;;;17.50;57.10;;;;;;4979610;28;20043;-96
2022/07/18 03:30:24;;;;;;;3.08;0.57;;;17.50;57.00;;;;;;4982024;28;20030;-92
2022/07/18 03:32:50;;;;;;;1.40;0.55;;;17.50;57.00;;;;;;4989200;28;20035;-95
2022/07/18 03:35:15;;;;;;;3.03;0.50;;;17.60;56.80;;;;;;4991150;28;20140;-96
2022/07/18 03:37:41;;;;;;;1.02;0.47;;;17.60;56.80;;;;;;4981303;28;20101;-95
2022/07/18 03:40:08;;;;;;;2.58;0.60;;;17.70;57.50;;;;;;4979780;28;20056;-95
2022/07/18 03:42:37;;;;;;;1.73;0.68;;;17.70;56.70;;;;;;4985410;28;20042;-96
2022/07/18 03:45:03;;;;;;;2.83;0.55;;;17.80;56.80;;;;;;4968813;28;20035;-95
2022/07/18 03:47:29;;;;;;;3.30;0.60;;;17.80;56.60;;;;;;4989714;28;20105;-95
2022/07/18 03:49:55;;;;;;;3.08;0.70;;;17.80;56.50;;;;;;4986572;28;20129;-96
2022/07/18 03:52:20;;;;;;;4.18;0.60;;;18.00;56.50;;;;;;4985267;28;20107;-96
2022/07/18 03:54:46;;;;;;;2.17;0.40;;;18.00;56.40;;;;;;4979296;28;20421;-95
2022/07/18 03:57:24;;;;;;;3.42;0.50;;;18.10;56.30;;;;;;4983409;28;20037;-96
2022/07/18 03:59:52;;;;;;;1.02;0.40;;;18.10;56.20;;;;;;5002097;28;20051;-96
2022/07/18 04:02:17;;;;;;;8.48;0.73;;;18.20;56.00;;;;;;4978806;28;20058;-95
2022/07/18 04:04:43;;;;;;;2.55;0.40;;;18.40;55.60;;;;;;4956124;28;20036;-95
2022/07/18 04:07:09;;;;;;;1.90;0.50;;;18.60;55.20;;;;;;4956102;28;20026;-94
2022/07/18 04:09:34;;;;;;;3.33;0.50;;;18.70;55.00;;;;;;4966498;28;20046;-95
2022/07/18 04:12:00;;;;;;;3.70;0.50;;;19.00;54.50;;;;;;4971067;28;20503;-97
2022/07/18 04:14:26;;;;;;;6.47;0.50;;;19.30;53.60;;;;;;4971144;28;20027;-95
2022/07/18 04:16:51;;;;;;;3.42;0.70;;;19.50;53.00;;;;;;4973856;28;20027;-94
2022/07/18 04:19:17;;;;;;;9.20;0.70;;;19.60;52.60;;;;;;4974002;28;20117;-95
2022/07/18 04:21:43;;;;;;;2.83;0.47;;;19.70;52.50;;;;;;4978989;28;20064;-95
2022/07/18 04:24:09;;;;;;;2.92;0.38;;;19.70;52.00;;;;;;4975744;28;20035;-95
2022/07/18 04:26:34;;;;;;;5.85;0.47;;;19.80;51.80;;;;;;4974945;28;20090;-94
2022/07/18 04:29:22;;;;;;;4.28;0.88;;;19.90;51.50;;;;;;4983603;28;20057;-96
2022/07/18 04:31:51;;;;;;;3.70;1.20;;;20.20;51.10;;;;;;4934073;28;20048;-96
2022/07/18 04:34:19;;;;;;;3.92;1.77;;;20.30;50.50;;;;;;4976045;29;20027;-96
2022/07/18 04:36:45;;;;;;;2.97;0.50;;;20.40;49.90;;;;;;4974899;29;20037;-96
2022/07/18 04:39:12;;;;;;;1.77;0.50;;;20.40;49.70;;;;;;4998517;28;20090;-96
2022/07/18 04:41:39;;;;;;;1.00;0.35;;;20.50;49.60;;;;;;5016340;28;20034;-96
2022/07/18 04:44:04;;;;;;;1.58;0.30;;;20.60;49.60;;;;;;5015441;28;20033;-96
2022/07/18 04:46:30;;;;;;;2.72;0.30;;;20.70;49.40;;;;;;5007655;28;20023;-96
2022/07/18 04:48:56;;;;;;;5.25;0.50;;;20.70;49.00;;;;;;4997512;28;20042;-96
2022/07/18 04:51:21;;;;;;;4.57;0.70;;;20.80;48.90;;;;;;4996229;28;20035;-96
2022/07/18 04:53:50;;;;;;;2.15;0.50;;;20.80;48.90;;;;;;4998232;28;20029;-96
2022/07/18 04:56:15;;;;;;;4.20;0.60;;;20.80;48.30;;;;;;4996485;28;20035;-96
2022/07/18 04:58:42;;;;;;;3.55;0.50;;;20.90;48.50;;;;;;4989098;28;20031;-96
2022/07/18 05:01:07;;;;;;;3.08;0.43;;;20.90;48.30;;;;;;4997674;28;20021;-96
2022/07/18 05:03:33;;;;;;;4.07;0.65;;;20.90;48.20;;;;;;4997100;28;20018;-96
2022/07/18 05:05:59;;;;;;;1.45;0.40;;;21.00;48.20;;;;;;4996237;28;20062;-96
2022/07/18 05:08:25;;;;;;;2.03;0.50;;;21.00;48.40;;;;;;4993081;28;20018;-96
2022/07/18 05:11:31;;;;;;;5.13;0.40;;;21.10;47.80;;;;;;4995766;28;20090;-96
2022/07/18 05:14:01;;;;;;;3.70;0.50;;;21.30;47.60;;;;;;4998647;28;20019;-96
2022/07/18 05:16:27;;;;;;;2.17;0.40;;;21.40;47.40;;;;;;4991886;28;20042;-96
2022/07/18 05:18:54;;;;;;;1.88;0.47;;;21.50;46.90;;;;;;4990198;28;20011;-93
2022/07/18 05:21:21;;;;;;;2.38;0.50;;;21.70;46.50;;;;;;4985202;28;20034;-95
2022/07/18 05:27:03;;;;;;;3.10;0.60;;;22.10;45.50;;;;;;4992736;28;20061;-94
2022/07/18 05:29:32;;;;;;;2.45;0.40;;;22.10;45.30;;;;;;4998521;28;20026;-92
2022/07/18 05:31:58;;;;;;;5.05;0.70;;;22.10;45.70;;;;;;4999095;28;20007;-90
2022/07/18 05:34:24;;;;;;;2.58;0.57;;;22.20;45.20;;;;;;4999966;28;20035;-93
2022/07/18 05:36:50;;;;;;;4.22;0.70;;;22.50;45.20;;;;;;4994164;28;20058;-95
2022/07/18 05:39:18;;;;;;;1.98;0.52;;;22.80;43.90;;;;;;4995581;28;20066;-95
2022/07/18 05:41:44;;;;;;;2.35;0.50;;;22.90;44.00;;;;;;4991564;28;20026;-96
2022/07/18 05:44:10;;;;;;;3.65;0.55;;;23.00;44.00;;;;;;4985947;28;20039;-95
2022/07/18 05:46:35;;;;;;;1.95;0.60;;;23.10;43.50;;;;;;4984004;28;20026;-93
2022/07/18 05:49:01;;;;;;;2.88;0.60;;;23.10;42.90;;;;;;4979777;28;20348;-92
2022/07/18 05:51:27;;;;;;;1.15;0.40;;;23.10;43.00;;;;;;4979894;28;20023;-94
2022/07/18 05:53:53;;;;;;;4.10;0.80;;;23.40;42.90;;;;;;4986739;28;20026;-95
2022/07/18 05:56:19;;;;;;;6.97;0.50;;;23.60;42.20;;;;;;4985199;28;20034;-94
2022/07/18 05:58:44;;;;;;;2.30;0.70;;;23.90;41.80;;;;;;4981682;28;20022;-96
2022/07/18 06:01:10;;;;;;;3.60;0.60;;;24.20;41.10;;;;;;4982849;28;20045;-94
2022/07/18 06:03:36;;;;;;;3.47;0.75;;;24.70;40.60;;;;;;4982372;28;20023;-95
2022/07/18 06:06:02;;;;;;;2.90;0.50;;;25.50;39.00;;;;;;4984736;28;20543;-94
2022/07/18 06:08:27;;;;;;;3.22;1.05;;;26.00;38.10;;;;;;4985350;28;20026;-96
2022/07/18 06:10:53;;;;;;;2.88;0.98;;;26.20;37.60;;;;;;4982752;28;20062;-95
2022/07/18 06:13:19;;;;;;;1.42;0.60;;;26.50;36.70;;;;;;4989818;28;20225;-94
2022/07/18 06:16:15;;;;;;;5.53;0.80;;;26.40;37.10;;;;;;4985274;28;20023;-96
2022/07/18 06:18:42;;;;;;;2.88;1.02;;;26.40;36.90;;;;;;4984841;28;20026;-94
2022/07/18 06:21:17;;;;;;;3.03;0.70;;;26.60;36.10;;;;;;4983326;28;20146;-95
2022/07/18 06:23:43;;;;;;;3.45;1.00;;;26.80;36.20;;;;;;4987720;28;20027;-95
2022/07/18 06:26:11;;;;;;;4.18;0.90;;;27.50;35.10;;;;;;4987977;28;20034;-95
2022/07/18 06:28:39;;;;;;;3.72;1.00;;;28.10;34.70;;;;;;4967277;28;20125;-96
2022/07/18 06:31:05;;;;;;;4.95;1.10;;;28.60;33.70;;;;;;4988887;28;20034;-95
2022/07/18 06:33:31;;;;;;;4.63;1.48;;;29.40;32.60;;;;;;4988405;28;20495;-96
2022/07/18 06:35:57;;;;;;;4.47;1.23;;;30.00;32.10;;;;;;4992339;28;20056;-96
2022/07/18 06:38:23;;;;;;;10.75;1.13;;;31.00;31.10;;;;;;4980591;28;20035;-94
2022/07/18 06:40:49;;;;;;;2.90;1.00;;;31.20;29.80;;;;;;4976104;28;20019;-96
2022/07/18 06:43:19;;;;;;;9.43;1.00;;;31.80;29.80;;;;;;4982297;28;20031;-94
2022/07/18 06:45:46;;;;;;;1.67;0.85;;;32.30;28.80;;;;;;4977557;28;20043;-96
2022/07/18 06:48:13;;;;;;;2.25;1.17;;;32.50;28.70;;;;;;4958037;28;20120;-94
2022/07/18 06:50:40;;;;;;;3.03;1.08;;;32.80;28.40;;;;;;4957727;29;20034;-96
2022/07/18 06:53:06;;;;;;;12.52;1.05;;;32.90;27.80;;;;;;4963033;29;20031;-96
2022/07/18 06:55:41;;;;;;;4.93;1.13;;;33.00;28.20;;;;;;4979692;28;20366;-96
2022/07/18 06:58:20;;;;;;;3.05;0.93;;;33.30;27.50;;;;;;4984467;28;20098;-96
2022/07/18 07:00:46;;;;;;;5.85;1.00;;;32.80;27.50;;;;;;4975265;28;20521;-95
2022/07/18 07:03:13;;;;;;;4.25;1.30;;;32.60;27.60;;;;;;4974781;28;20089;-96
2022/07/18 07:05:39;;;;;;;4.25;1.52;;;32.80;27.50;;;;;;4979316;28;20043;-96
2022/07/18 07:08:04;;;;;;;9.05;0.90;;;33.10;26.80;;;;;;4980064;28;20030;-95
2022/07/18 07:10:30;;;;;;;3.03;0.80;;;33.10;26.90;;;;;;4977552;28;20061;-96
2022/07/18 07:12:56;;;;;;;10.48;1.20;;;32.70;27.00;;;;;;4974104;28;20077;-95
2022/07/18 07:15:24;;;;;;;2.63;0.90;;;32.30;27.40;;;;;;4971960;28;20035;-95
2022/07/18 07:17:51;;;;;;;6.32;0.90;;;31.70;27.90;;;;;;4971456;28;20023;-95
2022/07/18 07:20:20;;;;;;;4.45;1.25;;;31.70;28.20;;;;;;4974761;28;20042;-94
2022/07/18 07:23:12;;;;;;;5.57;0.80;;;32.20;27.70;;;;;;4995764;28;20023;-94
2022/07/18 07:25:38;;;;;;;5.38;1.38;;;32.40;27.60;;;;;;4999775;28;20077;-96
2022/07/18 07:28:09;;;;;;;4.03;0.80;;;32.30;27.10;;;;;;4986363;28;20045;-96
2022/07/18 07:30:35;;;;;;;3.25;0.70;;;32.50;26.90;;;;;;4983375;28;20513;-96
2022/07/18 07:33:02;;;;;;;4.13;0.88;;;32.20;26.80;;;;;;4988668;28;20050;-96
2022/07/18 07:35:31;;;;;;;6.10;0.90;;;31.80;27.30;;;;;;4979740;28;20030;-96
2022/07/18 07:38:03;;;;;;;5.07;0.70;;;32.20;27.30;;;;;;4983408;28;20506;-95
2022/07/18 07:40:29;;;;;;;9.00;1.02;;;32.20;27.30;;;;;;4979803;28;20026;-96
2022/07/18 07:43:10;;;;;;;3.10;1.00;;;32.50;27.00;;;;;;4960823;28;20066;-96
2022/07/18 07:45:36;;;;;;;1.92;0.70;;;32.50;26.40;;;;;;4976504;28;20121;-95
2022/07/18 07:48:03;;;;;;;4.53;0.82;;;32.40;26.60;;;;;;4976161;28;20023;-96
2022/07/18 07:50:29;;;;;;;11.90;0.80;;;33.00;26.30;;;;;;4975295;28;20034;-94
2022/07/18 07:52:56;;;;;;;1.55;0.73;;;33.20;26.40;;;;;;4977103;28;20062;-93
2022/07/18 07:55:21;;;;;;;2.00;0.60;;;33.60;26.20;;;;;;4979938;28;20069;-96
2022/07/18 07:57:47;;;;;;;5.38;0.73;;;33.80;25.90;;;;;;4978611;28;20023;-95
2022/07/18 08:00:20;;;;;;;1.17;0.50;;;33.70;25.00;;;;;;4977762;28;20050;-96
2022/07/18 08:02:59;;;;;;;3.95;0.50;;;33.50;24.80;;;;;;4980526;28;20039;-96
2022/07/18 08:05:25;;;;;;;11.77;1.40;;;33.40;25.30;;;;;;4962318;28;20120;-94
2022/07/18 08:07:51;;;;;;;2.22;0.55;;;33.70;25.10;;;;;;4975595;28;20027;-94
2022/07/18 08:10:17;;;;;;;7.72;0.88;;;34.00;25.00;;;;;;4978230;28;20050;-95
2022/07/18 08:12:43;;;;;;;3.70;0.80;;;34.20;25.30;;;;;;4974381;28;20058;-94
2022/07/18 08:15:09;;;;;;;4.55;0.73;;;33.60;24.70;;;;;;4974827;28;20070;-92
2022/07/18 08:17:35;;;;;;;1.23;0.50;;;32.80;25.60;;;;;;4974394;28;20055;-93
2022/07/18 08:20:01;;;;;;;1.40;0.60;;;31.90;26.10;;;;;;4974608;28;20062;-93
2022/07/18 08:22:27;;;;;;;2.17;0.80;;;31.00;26.70;;;;;;4973539;28;20030;-94
2022/07/18 08:24:53;;;;;;;10.07;0.93;;;30.10;26.90;;;;;;4976344;28;20031;-94
2022/07/18 08:27:18;;;;;;;1.55;0.50;;;29.60;27.60;;;;;;4974648;28;20029;-94
2022/07/18 08:29:44;;;;;;;5.60;0.70;;;28.90;28.20;;;;;;4973955;28;20031;-94
2022/07/18 08:32:10;;;;;;;9.25;0.70;;;28.40;29.00;;;;;;4973962;28;20019;-94
2022/07/18 08:34:35;;;;;;;4.88;0.80;;;28.00;29.20;;;;;;4975574;28;20447;-95
2022/07/18 08:37:01;;;;;;;6.35;0.90;;;27.80;30.00;;;;;;4975457;28;20042;-86
2022/07/18 08:39:26;;;;;;;2.53;0.70;;;27.80;30.20;;;;;;4972892;28;20408;-95
2022/07/18 08:41:54;;;;;;;2.22;0.52;;;27.70;30.20;;;;;;4964413;28;20074;-92
2022/07/18 08:44:21;;;;;;;3.03;0.60;;;27.70;30.60;;;;;;4974358;28;20039;-94
2022/07/18 08:46:51;;;;;;;2.75;0.73;;;27.60;30.80;;;;;;4976719;28;20530;-93
2022/07/18 08:49:17;;;;;;;5.70;0.73;;;27.60;30.60;;;;;;4970150;28;20042;-93
2022/07/18 08:51:43;;;;;;;6.30;0.90;;;27.40;30.50;;;;;;4975641;28;20045;-96
2022/07/18 08:54:10;;;;;;;5.82;0.52;;;27.50;31.10;;;;;;4980882;28;20235;-92
2022/07/18 08:56:36;;;;;;;4.55;0.80;;;27.70;30.90;;;;;;4979204;28;20510;-94
2022/07/18 08:59:02;;;;;;;4.55;0.70;;;28.10;30.70;;;;;;4970698;28;20055;-95
2022/07/18 09:01:29;;;;;;;4.88;0.60;;;28.50;29.90;;;;;;4966448;28;20040;-94
2022/07/18 09:06:49;;;;;;;1.15;0.50;;;30.10;29.30;;;;;;4957839;28;20090;-94
2022/07/18 09:09:17;;;;;;;4.28;0.73;;;30.70;28.50;;;;;;4963126;28;20042;-93
2022/07/18 09:11:49;;;;;;;0.95;0.68;;;31.50;28.10;;;;;;4965274;28;20389;-95
2022/07/18 09:14:38;;;;;;;3.45;0.60;;;32.30;27.00;;;;;;4971762;28;20042;-95
2022/07/18 09:17:12;;;;;;;6.15;0.98;;;33.30;26.20;;;;;;4986925;28;20027;-93
2022/07/18 09:19:57;;;;;;;1.50;0.63;;;34.10;25.60;;;;;;4975972;28;20040;-93
2022/07/18 09:22:25;;;;;;;0.98;0.60;;;34.10;25.50;;;;;;4957807;28;20117;-96
2022/07/18 09:25:01;;;;;;;2.17;0.70;;;34.30;25.60;;;;;;4961819;28;20034;-96
2022/07/18 09:27:36;;;;;;;7.55;0.90;;;34.50;25.10;;;;;;4968331;28;20057;-94
2022/07/18 09:30:24;;;;;;;2.75;0.50;;;34.60;24.90;;;;;;4976196;28;20100;-96
2022/07/18 09:33:03;;;;;;;2.60;0.80;;;34.50;24.70;;;;;;4974674;28;20082;-95
2022/07/18 09:35:50;;;;;;;0.98;0.60;;;33.90;24.70;;;;;;4969252;28;20074;-96
2022/07/18 09:38:21;;;;;;;1.80;0.63;;;33.50;25.60;;;;;;4966105;28;20060;-95
2022/07/18 09:40:51;;;;;;;2.78;0.60;;;33.90;25.80;;;;;;4975492;28;20051;-96
2022/07/18 09:43:19;;;;;;;7.43;0.73;;;34.50;25.30;;;;;;4969146;28;20192;-96
2022/07/18 09:45:50;;;;;;;0.65;0.50;;;34.50;24.90;;;;;;4967265;28;20125;-95
2022/07/18 09:48:22;;;;;;;5.15;0.60;;;34.50;24.90;;;;;;4967247;28;20031;-95
2022/07/18 09:51:03;;;;;;;9.10;1.10;;;33.90;24.90;;;;;;4970025;28;20035;-96
2022/07/18 09:53:38;;;;;;;2.70;0.68;;;33.50;25.10;;;;;;4983078;28;20038;-95
2022/07/18 09:56:06;;;;;;;3.70;0.80;;;33.40;25.20;;;;;;4969139;28;20123;-95
2022/07/18 09:58:40;;;;;;;4.50;0.60;;;33.30;25.60;;;;;;4970861;28;20059;-96
2022/07/18 10:01:14;;;;;;;1.13;0.65;;;33.80;25.00;;;;;;4986715;28;20091;-96
2022/07/18 10:03:44;;;;;;;2.60;0.60;;;34.20;25.00;;;;;;4978804;28;20150;-96
2022/07/18 10:06:10;;;;;;;2.55;0.80;;;34.50;24.30;;;;;;4978038;28;20066;-96
2022/07/18 10:08:36;;;;;;;1.23;0.70;;;34.10;24.10;;;;;;4973846;28;20039;-96
2022/07/18 10:11:04;;;;;;;2.25;0.60;;;33.70;23.80;;;;;;4967295;28;20043;-95
2022/07/18 10:13:31;;;;;;;1.92;0.80;;;32.90;24.70;;;;;;4975419;28;20037;-96
2022/07/18 10:16:00;;;;;;;1.35;0.60;;;32.30;25.30;;;;;;4974247;28;20043;-94
2022/07/18 10:18:29;;;;;;;5.28;0.80;;;32.10;25.40;;;;;;4973691;28;20074;-93
2022/07/18 10:21:12;;;;;;;3.75;0.80;;;32.10;25.50;;;;;;4991822;28;20082;-95
2022/07/18 10:23:37;;;;;;;4.32;0.85;;;31.90;25.60;;;;;;4980102;28;20075;-95
2022/07/18 10:26:20;;;;;;;7.15;0.50;;;31.80;25.60;;;;;;4961394;28;20039;-95
2022/07/18 10:31:34;;;;;;;1.15;0.60;;;31.40;24.00;;;;;;4978936;28;20480;-96
2022/07/18 10:34:15;;;;;;;1.17;0.50;;;31.00;24.60;;;;;;4977117;28;20054;-95
2022/07/18 10:36:52;;;;;;;2.40;0.68;;;30.80;25.00;;;;;;4975714;28;20121;-95
2022/07/18 10:39:25;;;;;;;4.65;0.80;;;30.90;25.60;;;;;;4975185;28;20019;-95
2022/07/18 10:41:51;;;;;;;7.22;0.50;;;30.90;25.80;;;;;;4973503;28;20031;-96
2022/07/18 10:44:36;;;;;;;1.60;0.73;;;30.80;25.80;;;;;;4973485;28;20077;-95
2022/07/18 10:47:17;;;;;;;2.10;0.63;;;30.70;26.30;;;;;;4971307;28;20042;-95
2022/07/18 10:49:52;;;;;;;1.80;0.52;;;30.70;26.10;;;;;;4973450;28;20097;-95
2022/07/18 10:52:26;;;;;;;3.35;0.77;;;30.60;25.50;;;;;;4981520;28;20018;-95
2022/07/18 10:55:16;;;;;;;3.03;1.13;;;30.20;25.80;;;;;;4986508;28;20034;-94
2022/07/18 10:57:50;;;;;;;1.23;0.70;;;29.50;26.20;;;;;;4974103;28;20038;-94
2022/07/18 11:00:22;;;;;;;5.63;0.80;;;29.50;27.70;;;;;;4972330;28;20688;-94
2022/07/18 11:03:03;;;;;;;3.80;0.65;;;29.60;27.10;;;;;;4981867;28;20033;-93
2022/07/18 11:05:28;;;;;;;1.25;0.63;;;29.70;26.40;;;;;;4995541;28;20499;-94
2022/07/18 11:08:08;;;;;;;1.67;0.75;;;29.40;26.60;;;;;;4996906;28;20028;-95
2022/07/18 11:10:53;;;;;;;11.27;1.00;;;29.40;26.70;;;;;;4988831;28;20035;-96
2022/07/18 11:13:29;;;;;;;1.52;0.57;;;29.20;27.10;;;;;;4976730;28;20023;-94
2022/07/18 11:15:55;;;;;;;1.35;0.60;;;29.00;27.10;;;;;;4975730;28;20027;-94
2022/07/18 11:18:20;;;;;;;2.75;0.93;;;29.10;27.40;;;;;;4980951;28;20514;-94
2022/07/18 11:20:47;;;;;;;2.90;0.85;;;29.10;27.10;;;;;;4994793;28;20034;-92
2022/07/18 11:23:27;;;;;;;2.85;0.82;;;29.10;27.10;;;;;;4975701;28;20045;-91
2022/07/18 11:25:56;;;;;;;4.50;0.77;;;29.20;27.10;;;;;;4978902;28;20138;-94
2022/07/18 11:28:22;;;;;;;1.58;0.55;;;29.20;27.10;;;;;;4976492;28;20496;-95
2022/07/18 11:31:00;;;;;;;1.52;0.73;;;29.30;26.70;;;;;;4976107;28;20268;-94
2022/07/18 11:33:29;;;;;;;6.05;1.10;;;29.00;27.00;;;;;;4977311;28;20054;-94
2022/07/18 11:36:07;;;;;;;6.68;1.50;;;28.90;27.00;;;;;;4979215;28;20065;-93
2022/07/18 11:38:34;;;;;;;2.78;0.93;;;29.00;28.40;;;;;;4977055;28;20042;-93
2022/07/18 11:41:02;;;;;;;2.63;0.68;;;29.10;27.50;;;;;;4975874;28;20050;-93
2022/07/18 11:43:28;;;;;;;2.40;0.93;;;29.30;27.40;;;;;;4976933;28;20030;-93
2022/07/18 11:46:11;;;;;;;1.38;0.60;;;29.40;27.60;;;;;;4975091;28;20566;-94
2022/07/18 11:48:39;;;;;;;1.98;0.80;;;29.60;27.10;;;;;;4975879;28;20033;-93
2022/07/18 11:51:15;;;;;;;1.52;0.80;;;29.60;27.20;;;;;;4975854;28;20031;-94
2022/07/18 11:53:44;;;;;;;;;;;29.60;26.70;;;;;;4977423;28;20047;-94
2022/07/18 11:56:09;;;;;;;2.65;0.80;;;29.30;26.70;;;;;;4975250;28;19943;-95
2022/07/18 11:58:37;;;;;;;8.55;0.70;;;29.00;26.80;;;;;;4976174;28;20031;-92
2022/07/18 12:01:04;;;;;;;2.45;0.80;;;28.90;27.20;;;;;;4975939;28;20043;-92
2022/07/18 12:03:30;;;;;;;3.25;0.70;;;29.00;27.50;;;;;;4976044;28;20030;-94
2022/07/18 12:05:56;;;;;;;4.72;0.60;;;29.10;27.60;;;;;;4976911;28;20031;-92
2022/07/18 12:08:32;;;;;;;2.03;0.98;;;29.40;27.90;;;;;;4975757;28;20115;-93
2022/07/18 12:11:17;;;;;;;2.05;0.70;;;29.50;27.30;;;;;;4986852;28;20030;-93
2022/07/18 12:13:52;;;;;;;3.88;0.70;;;29.70;27.60;;;;;;4997236;28;20117;-94
2022/07/18 12:16:37;;;;;;;1.90;0.60;;;30.00;27.30;;;;;;4995317;28;20037;-92
2022/07/18 12:19:10;;;;;;;3.40;0.70;;;30.00;27.00;;;;;;4984886;28;20034;-93
2022/07/18 12:21:45;;;;;;;4.25;0.77;;;30.10;26.70;;;;;;4975486;28;20499;-93
2022/07/18 12:24:34;;;;;;;3.03;0.70;;;30.20;27.00;;;;;;4975931;28;20037;-94
2022/07/18 12:27:18;;;;;;;2.20;0.70;;;30.30;26.90;;;;;;4976729;28;20029;-92
2022/07/18 12:30:09;;;;;;;4.40;0.98;;;30.40;26.80;;;;;;4976377;28;20038;-93
2022/07/18 12:32:55;;;;;;;4.20;0.98;;;30.40;26.40;;;;;;4975099;28;20030;-93
2022/07/18 12:35:28;;;;;;;2.08;0.70;;;30.40;26.20;;;;;;4975999;28;20026;-93
2022/07/18 12:38:01;;;;;;;1.17;0.70;;;30.40;26.40;;;;;;4978239;28;20034;-93
2022/07/18 12:40:37;;;;;;;3.38;0.95;;;30.30;26.00;;;;;;4996938;28;20045;-94
2022/07/18 12:43:16;;;;;;;2.97;0.90;;;30.30;26.40;;;;;;4993925;28;20076;-94
2022/07/18 12:45:43;;;;;;;2.40;0.68;;;30.10;26.20;;;;;;4993299;28;20038;-93
2022/07/18 12:48:11;;;;;;;2.38;0.82;;;30.10;26.70;;;;;;4977724;28;20027;-93
2022/07/18 12:50:38;;;;;;;7.38;0.80;;;30.10;26.80;;;;;;4974604;28;20026;-94
2022/07/18 12:53:04;;;;;;;2.80;0.57;;;30.10;25.90;;;;;;4985330;28;20080;-94
2022/07/18 12:55:30;;;;;;;5.00;0.70;;;29.80;26.60;;;;;;4991268;28;20007;-93
2022/07/18 12:57:56;;;;;;;1.70;1.00;;;29.50;26.30;;;;;;4996761;28;20054;-94
2022/07/18 13:00:22;;;;;;;2.47;0.80;;;29.40;26.60;;;;;;4993174;28;20091;-93
2022/07/18 13:02:47;;;;;;;3.25;1.00;;;29.40;26.90;;;;;;4977551;28;20029;-95
2022/07/18 13:05:13;;;;;;;5.25;0.80;;;29.50;26.70;;;;;;4977575;28;20057;-93
2022/07/18 13:07:39;;;;;;;4.35;0.60;;;29.60;26.70;;;;;;4975891;28;20050;-92
2022/07/18 13:10:06;;;;;;;4.50;0.60;;;29.70;26.60;;;;;;4975577;28;20392;-94
2022/07/18 13:12:32;;;;;;;4.28;0.65;;;29.80;26.40;;;;;;4974513;28;20054;-93
2022/07/18 13:14:58;;;;;;;1.60;0.50;;;29.90;26.70;;;;;;4974947;28;20031;-92
2022/07/18 13:17:23;;;;;;;1.27;0.60;;;30.00;26.50;;;;;;4974811;28;20566;-93
2022/07/18 13:19:49;;;;;;;1.10;0.57;;;30.00;26.40;;;;;;4973511;28;20027;-93
2022/07/18 13:22:16;;;;;;;3.65;0.60;;;30.10;26.60;;;;;;4977539;28;20518;-94
2022/07/18 13:24:41;;;;;;;1.88;0.50;;;30.10;26.60;;;;;;4974825;28;20039;-93
2022/07/18 13:27:07;;;;;;;0.60;0.40;;;30.10;26.80;;;;;;4975810;28;20037;-93